createdAt,value
2022-09-13T00:01:43.567Z,99854.28
2022-09-13T00:04:12.643Z,99853.47
2022-09-13T00:06:41.741Z,99856.13
2022-09-13T00:09:10.833Z,99848.47
2022-09-13T00:11:42.050Z,99846.66
2022-09-13T00:14:11.417Z,99854.47
2022-09-13T00:16:40.586Z,99839.88
2022-09-13T00:19:09.861Z,99839.88
2022-09-13T00:21:44.030Z,99838.19
2022-09-13T00:24:18.310Z,99834.72
2022-09-13T00:26:49.318Z,99845.91
2022-09-13T00:29:19.179Z,99832.19
2022-09-13T00:31:48.577Z,99831.31
2022-09-13T00:34:17.840Z,99838.25
2022-09-13T00:36:47.271Z,99815.09
2022-09-13T00:39:16.366Z,99837.38
2022-09-13T00:41:45.504Z,99840.00
2022-09-13T00:44:58.264Z,99828.78
2022-09-13T00:47:38.259Z,99840.88
2022-09-13T00:50:13.033Z,99839.16
2022-09-13T00:52:46.856Z,99826.22
2022-09-13T00:55:21.876Z,99839.97
2022-09-13T00:57:52.258Z,99836.59
2022-09-13T01:00:22.439Z,99834.03
2022-09-13T01:02:57.871Z,99822.81
2022-09-13T01:05:31.851Z,99834.91
2022-09-13T01:08:22.552Z,99832.38
2022-09-13T01:10:59.167Z,99835.84
2022-09-13T01:13:31.558Z,99832.41
2022-09-13T01:16:01.609Z,99836.69
2022-09-13T01:18:32.729Z,99845.31
2022-09-13T01:21:39.051Z,99832.44
2022-09-13T01:24:27.220Z,99839.31
2022-09-13T01:27:27.999Z,99848.78
2022-09-13T01:30:11.117Z,99844.50
2022-09-13T01:32:57.855Z,99859.13
2022-09-13T01:35:41.023Z,99835.03
2022-09-13T01:38:26.638Z,99835.88
2022-09-13T01:41:08.233Z,99819.59
2022-09-13T01:43:59.626Z,99823.00
2022-09-13T01:46:38.197Z,99830.75
2022-09-13T01:49:19.908Z,99822.16
2022-09-13T01:51:54.590Z,99833.34
2022-09-13T01:54:41.453Z,99833.34
2022-09-13T01:57:17.527Z,99825.66
2022-09-13T01:59:52.414Z,99820.47
2022-09-13T02:02:31.319Z,99822.19
2022-09-13T02:05:07.498Z,99831.66
2022-09-13T02:07:45.534Z,99828.22
2022-09-13T02:10:18.970Z,99820.50
2022-09-13T02:12:50.457Z,99818.78
2022-09-13T02:15:24.809Z,99818.78
2022-09-13T02:18:12.447Z,99818.78
2022-09-13T02:20:46.375Z,99817.94
2022-09-13T02:23:19.042Z,99805.91
2022-09-13T02:25:51.470Z,99805.06
2022-09-13T02:28:25.794Z,99806.78
2022-09-13T02:30:56.340Z,99803.34
2022-09-13T02:33:33.382Z,99813.66
2022-09-13T02:36:06.414Z,99817.94
2022-09-13T02:38:40.561Z,99799.06
2022-09-13T02:41:20.827Z,99811.91
2022-09-13T02:43:55.666Z,99785.31
2022-09-13T02:46:46.794Z,99820.50
2022-09-13T02:49:28.977Z,99800.75
2022-09-13T02:52:09.289Z,99799.03
2022-09-13T02:54:45.791Z,99807.63
2022-09-13T03:00:00.457Z,99799.88
2022-09-13T03:02:34.896Z,99800.78
2022-09-13T03:05:07.024Z,99796.47
2022-09-13T03:07:36.079Z,99807.63
2022-09-13T03:10:09.307Z,99802.47
2022-09-13T03:12:57.165Z,99799.03
2022-09-13T03:15:42.830Z,99805.91
2022-09-13T03:18:25.783Z,99792.19
2022-09-13T03:21:08.772Z,99799.06
2022-09-13T03:23:59.838Z,99791.31
2022-09-13T03:26:38.472Z,99801.63
2022-09-13T03:29:22.543Z,99800.75
2022-09-13T03:32:04.021Z,99805.03
2022-09-13T03:37:28.134Z,99793.03
2022-09-13T03:40:03.139Z,99799.00
2022-09-13T03:42:41.740Z,99750.94
2022-09-13T03:45:23.732Z,99807.59
2022-09-13T03:47:54.088Z,99796.41
2022-09-13T03:50:25.186Z,99780.13
2022-09-13T03:53:02.112Z,99789.56
2022-09-13T03:55:34.408Z,99788.69
2022-09-13T03:58:08.649Z,99783.53
2022-09-13T04:00:40.051Z,99777.53
2022-09-13T04:03:09.735Z,99794.69
2022-09-13T04:05:39.178Z,99781.81
2022-09-13T04:08:10.451Z,99789.56
2022-09-13T04:10:40.652Z,99764.66
2022-09-13T04:13:09.776Z,99771.53
2022-09-13T04:15:38.907Z,99782.59
2022-09-13T04:18:08.632Z,99791.19
2022-09-13T04:20:37.665Z,99790.28
2022-09-13T04:23:06.816Z,99792.88
2022-09-13T04:25:40.912Z,99792.06
2022-09-13T04:28:10.050Z,99785.19
2022-09-13T04:30:42.594Z,99785.22
2022-09-13T04:33:14.187Z,99784.31
2022-09-13T04:35:43.397Z,99794.59
2022-09-13T04:38:12.555Z,99785.13
2022-09-13T04:40:48.764Z,99790.25
2022-09-13T04:43:19.387Z,99789.41
2022-09-13T04:45:53.917Z,99795.41
2022-09-13T04:48:29.155Z,99804.84
2022-09-13T04:51:04.353Z,99805.75
2022-09-13T04:53:38.402Z,99797.09
2022-09-13T04:56:10.082Z,99804.81
2022-09-13T04:58:39.292Z,99785.06
2022-09-13T05:01:10.193Z,99795.31
2022-09-13T05:03:40.232Z,99788.41
2022-09-13T05:06:11.681Z,99793.50
2022-09-13T05:08:46.664Z,99802.94
2022-09-13T05:11:17.996Z,99800.28
2022-09-13T05:13:52.657Z,99801.19
2022-09-13T05:16:22.122Z,99804.56
2022-09-13T05:18:51.784Z,99790.75
2022-09-13T05:21:21.751Z,99814.06
2022-09-13T05:23:53.685Z,99801.13
2022-09-13T05:26:26.625Z,99789.81
2022-09-13T05:29:01.426Z,99800.13
2022-09-13T05:31:32.823Z,99788.91
2022-09-13T05:34:06.835Z,99803.44
2022-09-13T05:39:31.711Z,99784.38
2022-09-13T05:42:05.175Z,99805.84
2022-09-13T05:44:34.309Z,99802.28
2022-09-13T05:47:03.361Z,99808.28
2022-09-13T05:49:55.269Z,99806.50
2022-09-13T05:52:27.158Z,99800.38
2022-09-13T05:54:56.405Z,99796.94
2022-09-13T05:57:27.746Z,99805.56
2022-09-13T06:00:01.817Z,99799.53
2022-09-13T06:02:33.829Z,99800.38
2022-09-13T06:05:03.065Z,99802.88
2022-09-13T06:07:33.696Z,99781.28
2022-09-13T06:10:10.838Z,99796.66
2022-09-13T06:12:42.152Z,99796.53
2022-09-13T06:17:51.713Z,99796.25
2022-09-13T06:20:20.765Z,99779.75
2022-09-13T06:22:49.958Z,99796.09
2022-09-13T06:25:19.085Z,99794.31
2022-09-13T06:27:50.515Z,99787.25
2022-09-13T06:30:22.470Z,99774.13
2022-09-13T06:32:58.073Z,99779.25
2022-09-13T06:35:27.810Z,99783.47
2022-09-13T06:37:58.795Z,99770.56
2022-09-13T06:40:28.629Z,99756.97
2022-09-13T06:43:00.170Z,99783.63
2022-09-13T06:45:29.401Z,99775.81
2022-09-13T06:47:58.525Z,99783.47
2022-09-13T06:50:27.701Z,99784.34
2022-09-13T06:52:58.578Z,99773.09
2022-09-13T06:55:32.918Z,99779.31
2022-09-13T06:58:04.214Z,99775.78
2022-09-13T07:00:33.295Z,99785.34
2022-09-13T07:03:02.400Z,99738.09
2022-09-13T07:05:31.499Z,99762.84
2022-09-13T07:08:12.149Z,99760.00
2022-09-13T07:10:41.301Z,99773.53
2022-09-13T07:13:12.362Z,99761.25
2022-09-13T07:15:41.473Z,99764.56
2022-09-13T07:18:11.056Z,99755.91
2022-09-13T07:20:40.257Z,99735.97
2022-09-13T07:23:13.561Z,99730.78
2022-09-13T07:25:44.419Z,99736.59
2022-09-13T07:28:22.414Z,99747.56
2022-09-13T07:30:51.953Z,99730.94
2022-09-13T07:33:21.057Z,99742.09
2022-09-13T07:35:59.940Z,99709.38
2022-09-13T07:38:29.572Z,99722.91
2022-09-13T07:40:59.210Z,99729.13
2022-09-13T07:43:31.570Z,99733.53
2022-09-13T07:46:02.125Z,99712.56
2022-09-13T07:48:39.058Z,99724.16
2022-09-13T07:51:08.918Z,99724.03
2022-09-13T07:53:44.367Z,99717.38
2022-09-13T07:56:15.613Z,99710.53
2022-09-13T07:58:54.586Z,99707.94
2022-09-13T08:01:25.822Z,99711.19
2022-09-13T08:03:56.498Z,99720.53
2022-09-13T08:06:32.062Z,99699.72
2022-09-13T08:09:08.122Z,99685.72
2022-09-13T08:11:44.266Z,99681.22
2022-09-13T08:14:17.281Z,99699.88
2022-09-13T08:16:46.443Z,99693.47
2022-09-13T08:19:17.627Z,99695.03
2022-09-13T08:21:47.581Z,99698.25
2022-09-13T08:24:28.195Z,99708.19
2022-09-13T08:27:02.376Z,99694.09
2022-09-13T08:29:33.494Z,99688.00
2022-09-13T08:32:02.817Z,99685.09
2022-09-13T08:34:33.135Z,99682.19
2022-09-13T08:37:07.392Z,99685.47
2022-09-13T08:39:36.506Z,99686.16
2022-09-13T08:42:28.348Z,99692.94
2022-09-13T08:45:01.700Z,99660.69
2022-09-13T08:47:43.187Z,99672.72
2022-09-13T08:50:21.282Z,99640.69
2022-09-13T08:52:59.066Z,99637.69
2022-09-13T08:55:42.305Z,99660.03
2022-09-13T08:58:41.049Z,99667.91
2022-09-13T09:01:23.049Z,99661.28
2022-09-13T09:04:02.051Z,99657.09
2022-09-13T09:06:31.426Z,99642.28
2022-09-13T09:09:04.582Z,99649.91
2022-09-13T09:11:43.661Z,99642.44
2022-09-13T09:14:19.479Z,99658.06
2022-09-13T09:17:05.065Z,99651.50
2022-09-13T09:19:40.029Z,99653.13
2022-09-13T09:22:18.554Z,99644.34
2022-09-13T09:24:52.798Z,99639.19
2022-09-13T09:27:25.504Z,99635.28
2022-09-13T09:29:57.768Z,99622.88
2022-09-13T09:32:49.126Z,99629.59
2022-09-13T09:35:30.934Z,99621.38
2022-09-13T09:38:21.616Z,99627.72
2022-09-13T09:40:51.254Z,99621.72
2022-09-13T09:43:26.642Z,99616.13
2022-09-13T09:45:59.267Z,99595.47
2022-09-13T09:48:45.097Z,99616.25
2022-09-13T09:51:17.195Z,99605.78
2022-09-13T09:53:50.383Z,99605.44
2022-09-13T09:56:25.130Z,99600.59
2022-09-13T09:58:56.132Z,99610.72
2022-09-13T10:01:34.643Z,99623.63
2022-09-13T10:04:10.403Z,99610.66
2022-09-13T10:06:41.572Z,99615.44
2022-09-13T10:09:19.378Z,99603.91
2022-09-13T10:11:51.993Z,99613.94
2022-09-13T10:14:39.146Z,99612.34
2022-09-13T10:17:17.867Z,99600.03
2022-09-13T10:20:00.897Z,99613.28
2022-09-13T10:22:38.056Z,99590.59
2022-09-13T10:25:17.500Z,99608.56
2022-09-13T10:27:53.470Z,99513.13
2022-09-13T10:30:34.915Z,99601.66
2022-09-13T10:33:05.608Z,99601.50
2022-09-13T10:35:36.709Z,99598.03
2022-09-13T10:38:06.070Z,99590.50
2022-09-13T10:40:38.953Z,99561.91
2022-09-13T10:43:19.072Z,99595.63
2022-09-13T10:45:51.855Z,99591.22
2022-09-13T10:48:22.247Z,99580.66
2022-09-13T10:51:07.090Z,99557.88
2022-09-13T10:53:40.159Z,99569.47
2022-09-13T10:56:22.351Z,99569.50
2022-09-13T10:58:51.627Z,99568.78
2022-09-13T11:01:43.442Z,99561.19
2022-09-13T11:04:42.594Z,99555.16
2022-09-13T11:07:39.899Z,99576.03
2022-09-13T11:10:19.223Z,99575.00
2022-09-13T11:13:02.428Z,99571.59
2022-09-13T11:15:45.517Z,99571.44
2022-09-13T11:18:58.734Z,99500.69
2022-09-13T11:21:45.445Z,99560.66
2022-09-13T11:24:47.641Z,99550.19
2022-09-13T11:27:30.189Z,99548.69
2022-09-13T11:30:17.883Z,99550.22
2022-09-13T11:33:01.082Z,99529.16
2022-09-13T11:35:41.014Z,99530.44
2022-09-13T11:38:25.862Z,99543.56
2022-09-13T11:41:01.934Z,99535.03
2022-09-13T11:43:51.790Z,99534.91
2022-09-13T11:46:33.216Z,99543.72
2022-09-13T11:49:34.565Z,99541.06
2022-09-13T11:52:17.722Z,99536.03
2022-09-13T11:55:01.766Z,99524.06
2022-09-13T11:57:37.431Z,99542.13
2022-09-13T12:00:25.316Z,99529.06
2022-09-13T12:03:09.335Z,99539.41
2022-09-13T12:08:23.779Z,99533.19
2022-09-13T12:11:11.853Z,99531.84
2022-09-13T12:13:56.586Z,99530.75
2022-09-13T12:16:36.076Z,99510.16
2022-09-13T12:19:19.279Z,99512.56
2022-09-13T12:22:00.963Z,99500.59
2022-09-13T12:24:35.602Z,99498.00
2022-09-13T12:27:20.997Z,99457.16
2022-09-13T12:29:54.762Z,99487.25
2022-09-13T12:32:36.181Z,99487.31
2022-09-13T12:35:07.915Z,99485.75
2022-09-13T12:37:49.219Z,99497.56
2022-09-13T12:40:45.329Z,99489.28
2022-09-13T12:43:55.841Z,99489.75
2022-09-13T12:47:04.010Z,99490.88
2022-09-13T12:57:21.398Z,99468.31
2022-09-13T13:00:15.328Z,99470.88
2022-09-13T13:03:05.171Z,99462.97
2022-09-13T13:05:38.104Z,99471.47
2022-09-13T13:08:32.945Z,99463.75
2022-09-13T13:11:05.348Z,99469.06
2022-09-13T13:13:41.918Z,99454.38
2022-09-13T13:16:29.027Z,99404.44
2022-09-13T13:19:00.055Z,99443.28
2022-09-13T13:21:33.273Z,99456.34
2022-09-13T13:24:32.473Z,99449.19
2022-09-13T13:27:01.598Z,99428.47
2022-09-13T13:29:33.406Z,99423.31
2022-09-13T13:32:14.188Z,99423.22
2022-09-13T13:34:50.327Z,99429.41
2022-09-13T13:37:41.839Z,99431.22
2022-09-13T13:40:29.310Z,99426.63
2022-09-13T13:43:32.247Z,99434.66
2022-09-13T13:46:30.844Z,99435.66
2022-09-13T13:49:29.626Z,99435.53
2022-09-13T13:52:40.365Z,99417.22
2022-09-13T13:55:40.944Z,99425.13
2022-09-13T13:58:29.263Z,99424.31
2022-09-13T14:01:01.993Z,99446.84
2022-09-13T14:03:54.654Z,99434.72
2022-09-13T14:06:35.149Z,99438.03
2022-09-13T14:09:30.253Z,99435.38
2022-09-13T14:12:21.919Z,99445.38
2022-09-13T14:15:10.281Z,99445.31
2022-09-13T14:18:03.464Z,99438.63
2022-09-13T14:20:39.594Z,99443.09
2022-09-13T14:23:15.118Z,99432.72
2022-09-13T14:25:45.350Z,99401.31
2022-09-13T14:28:19.678Z,99425.09
2022-09-13T14:30:56.834Z,99428.53
2022-09-13T14:33:30.955Z,99436.13
2022-09-13T14:36:08.144Z,99437.16
2022-09-13T14:38:38.211Z,99425.19
2022-09-13T14:41:19.405Z,99427.91
2022-09-13T14:43:50.143Z,99428.69
2022-09-13T14:46:25.087Z,99420.22
2022-09-13T14:49:00.119Z,99417.63
2022-09-13T14:51:46.311Z,99427.34
2022-09-13T14:54:20.418Z,99424.06
2022-09-13T14:56:56.737Z,99427.59
2022-09-13T14:59:29.631Z,99409.50
2022-09-13T15:02:08.644Z,99417.81
2022-09-13T15:04:43.191Z,99398.06
2022-09-13T15:07:23.615Z,99427.13
2022-09-13T15:10:00.281Z,99418.50
2022-09-13T15:12:34.206Z,99393.06
2022-09-13T15:15:33.074Z,99408.38
2022-09-13T15:18:05.928Z,99407.63
2022-09-13T15:20:50.946Z,99387.88
2022-09-13T15:23:27.685Z,99401.69
2022-09-13T15:25:58.709Z,99396.75
2022-09-13T15:28:30.025Z,99395.03
2022-09-13T15:31:01.582Z,99385.63
2022-09-13T15:33:33.790Z,99400.44
2022-09-13T15:36:17.482Z,99385.03
2022-09-13T15:39:16.490Z,99388.63
2022-09-13T15:41:55.067Z,99377.69
2022-09-13T15:44:30.467Z,99388.03
2022-09-13T15:47:09.869Z,99383.69
2022-09-13T15:49:46.709Z,99389.84
2022-09-13T15:52:17.156Z,99377.00
2022-09-13T15:54:54.948Z,99388.06
2022-09-13T15:57:26.156Z,99378.75
2022-09-13T16:00:06.227Z,99390.28
2022-09-13T16:02:38.990Z,99385.25
2022-09-13T16:05:11.661Z,99379.38
2022-09-13T16:07:41.547Z,99369.09
2022-09-13T16:10:23.145Z,99382.16
2022-09-13T16:12:52.380Z,99376.34
2022-09-13T16:15:21.494Z,99375.53
2022-09-13T16:17:50.640Z,99368.75
2022-09-13T16:20:19.881Z,99318.69
2022-09-13T16:22:56.929Z,99364.66
2022-09-13T16:25:28.072Z,99366.38
2022-09-13T16:28:02.723Z,99379.44
2022-09-13T16:30:33.027Z,99377.81
2022-09-13T16:33:02.420Z,99352.41
2022-09-13T16:35:33.784Z,99373.06
2022-09-13T16:38:07.988Z,99370.34
2022-09-13T16:40:41.012Z,99372.97
2022-09-13T16:43:15.519Z,99357.50
2022-09-13T16:45:44.866Z,99368.84
2022-09-13T16:48:13.892Z,99350.56
2022-09-13T16:50:43.548Z,99356.66
2022-09-13T16:53:12.674Z,99361.19
2022-09-13T16:55:45.967Z,99353.47
2022-09-13T16:58:20.645Z,99357.69
2022-09-13T17:00:50.041Z,99362.03
2022-09-13T17:03:20.866Z,99350.81
2022-09-13T17:06:01.330Z,99331.25
2022-09-13T17:08:31.040Z,99347.31
2022-09-13T17:11:02.303Z,99348.09
2022-09-13T17:13:34.291Z,99329.19
2022-09-13T17:16:04.079Z,99329.09
2022-09-13T17:18:33.545Z,99336.00
2022-09-13T17:21:08.173Z,99314.91
2022-09-13T17:23:37.207Z,99327.69
2022-09-13T17:26:13.505Z,99325.94
2022-09-13T17:28:42.933Z,99336.34
2022-09-13T17:31:17.814Z,99309.59
2022-09-13T17:33:47.922Z,99301.84
2022-09-13T17:36:17.363Z,99328.16
2022-09-13T17:38:46.738Z,99323.06
2022-09-13T17:41:20.065Z,99331.63
2022-09-13T17:43:49.435Z,99321.56
2022-09-13T17:46:21.289Z,99314.72
2022-09-13T17:48:51.506Z,99323.56
2022-09-13T17:51:22.563Z,99316.03
2022-09-13T17:53:58.291Z,99304.81
2022-09-13T17:56:33.139Z,99323.91
2022-09-13T17:59:10.253Z,99309.41
2022-09-13T18:01:41.708Z,99307.19
2022-09-13T18:04:12.012Z,99293.22
2022-09-13T18:06:42.410Z,99296.91
2022-09-13T18:09:18.979Z,99277.38
2022-09-13T18:11:50.122Z,99284.19
2022-09-13T18:14:20.646Z,99293.56
2022-09-13T18:16:56.682Z,99273.25
2022-09-13T18:19:45.303Z,99264.44
2022-09-13T18:22:20.509Z,99261.22
2022-09-13T18:24:54.765Z,99274.94
2022-09-13T18:27:26.080Z,99270.72
2022-09-13T18:29:55.336Z,99276.06
2022-09-13T18:32:24.358Z,99275.31
2022-09-13T18:34:53.670Z,99256.47
2022-09-13T18:37:22.966Z,99248.72
2022-09-13T18:39:52.599Z,99231.63
2022-09-13T18:42:21.640Z,99235.84
2022-09-13T18:44:52.778Z,99250.44
2022-09-13T18:47:22.025Z,99223.69
2022-09-13T18:52:26.035Z,99217.16
2022-09-13T18:55:00.333Z,99216.94
2022-09-13T18:57:29.889Z,99189.44
2022-09-13T19:00:02.669Z,99204.97
2022-09-13T19:02:47.875Z,99194.94
2022-09-13T19:05:28.506Z,99193.97
2022-09-13T19:07:57.859Z,99164.03
2022-09-13T19:10:28.129Z,99192.19
2022-09-13T19:12:57.422Z,99186.22
2022-09-13T19:15:29.002Z,99167.91
2022-09-13T19:17:58.466Z,99177.59
2022-09-13T19:20:27.989Z,99177.41
2022-09-13T19:22:57.767Z,99173.13
2022-09-13T19:25:29.922Z,99174.84
2022-09-13T19:28:06.199Z,99165.41
2022-09-13T19:30:38.559Z,99164.53
2022-09-13T19:35:42.832Z,99169.69
2022-09-13T19:38:12.460Z,99167.09
2022-09-13T19:40:41.829Z,99158.59
2022-09-13T19:43:17.548Z,99140.34
2022-09-13T19:46:01.844Z,99146.47
2022-09-13T19:48:38.637Z,99133.75
2022-09-13T19:51:10.647Z,99139.66
2022-09-13T19:53:56.398Z,99135.31
2022-09-13T19:56:29.010Z,99130.06
2022-09-13T19:59:03.976Z,99124.97
2022-09-13T20:01:37.379Z,99111.25
2022-09-13T20:04:11.162Z,99124.25
2022-09-13T20:06:53.028Z,99118.97
2022-09-13T20:09:23.329Z,99105.16
2022-09-13T20:11:59.590Z,99102.06
2022-09-13T20:14:28.815Z,99101.78
2022-09-13T20:17:01.994Z,99106.09
2022-09-13T20:19:50.088Z,99113.91
2022-09-13T20:22:24.609Z,99074.47
2022-09-13T20:24:58.702Z,99105.19
2022-09-13T20:27:30.796Z,99101.81
2022-09-13T20:30:00.450Z,99095.91
2022-09-13T20:32:31.408Z,99100.97
2022-09-13T20:35:00.662Z,99092.53
2022-09-13T20:37:29.715Z,99083.28
2022-09-13T20:40:02.603Z,99098.81
2022-09-13T20:42:32.783Z,99074.31
2022-09-13T20:45:01.980Z,99071.69
2022-09-13T20:47:36.319Z,99071.88
2022-09-13T20:50:12.648Z,99087.19
2022-09-13T20:52:42.433Z,99082.91
2022-09-13T20:55:11.773Z,99067.41
2022-09-13T20:57:41.303Z,99070.72
2022-09-13T21:00:12.250Z,99070.00
2022-09-13T21:02:43.943Z,99060.47
2022-09-13T21:05:13.138Z,99053.47
2022-09-13T21:07:55.194Z,99035.16
2022-09-13T21:10:25.778Z,99059.47
2022-09-13T21:12:55.815Z,99047.41
2022-09-13T21:15:24.946Z,99055.19
2022-09-13T21:18:02.063Z,99053.47
2022-09-13T21:20:38.596Z,99048.41
2022-09-13T21:23:08.512Z,99034.59
2022-09-13T21:25:38.083Z,99048.41
2022-09-13T21:28:07.398Z,99048.44
2022-09-13T21:30:41.912Z,99041.41
2022-09-13T21:33:13.216Z,99012.56
2022-09-13T21:35:53.524Z,99020.06
2022-09-13T21:38:22.639Z,99016.75
2022-09-13T21:40:59.635Z,99025.25
2022-09-13T21:43:29.388Z,99026.25
2022-09-13T21:46:03.638Z,98999.44
2022-09-13T21:48:36.052Z,99008.16
2022-09-13T21:51:12.810Z,99003.88
2022-09-13T21:53:42.039Z,99009.97
2022-09-13T21:56:13.795Z,99012.56
2022-09-13T21:58:43.365Z,98990.25
2022-09-13T22:01:14.730Z,99004.72
2022-09-13T22:03:47.119Z,99013.22
2022-09-13T22:06:19.272Z,98983.34
2022-09-13T22:08:49.974Z,99007.09
2022-09-13T22:11:21.068Z,99007.19
2022-09-13T22:13:50.936Z,98997.75
2022-09-13T22:16:21.898Z,99001.09
2022-09-13T22:18:56.976Z,98985.50
2022-09-13T22:21:33.173Z,98998.31
2022-09-13T22:24:02.881Z,98973.59
2022-09-13T22:26:35.049Z,98994.94
2022-09-13T22:29:05.124Z,98991.44
2022-09-13T22:31:37.202Z,98993.25
2022-09-13T22:34:10.227Z,98991.63
2022-09-13T22:36:44.730Z,98982.31
2022-09-13T22:39:15.427Z,98983.25
2022-09-13T22:44:19.754Z,98961.13
2022-09-13T22:46:50.315Z,98967.03
2022-09-13T22:49:22.312Z,98953.38
2022-09-13T22:51:51.095Z,98957.97
2022-09-13T22:54:21.447Z,98942.91
2022-09-13T22:56:50.661Z,98954.06
2022-09-13T22:59:22.000Z,98931.72
2022-09-13T23:01:51.809Z,98944.53
2022-09-13T23:04:23.038Z,98908.03
2022-09-13T23:06:58.818Z,98934.22
2022-09-13T23:09:28.061Z,98937.66
2022-09-13T23:11:57.381Z,98938.44
2022-09-13T23:14:31.465Z,98923.91
2022-09-13T23:17:00.682Z,98920.34
2022-09-13T23:19:37.042Z,98927.16
2022-09-13T23:22:06.426Z,98923.69
2022-09-13T23:24:35.650Z,98915.13
2022-09-13T23:27:04.850Z,98915.13
2022-09-13T23:29:33.838Z,98910.00
2022-09-13T23:32:14.069Z,98910.00
2022-09-13T23:34:45.134Z,98903.16
2022-09-13T23:37:19.460Z,98900.53
2022-09-13T23:39:48.677Z,98899.81
2022-09-13T23:42:21.121Z,98894.00
2022-09-13T23:44:50.375Z,98891.44
2022-09-13T23:47:19.388Z,98888.66
2022-09-13T23:49:50.848Z,98886.22
2022-09-13T23:52:20.051Z,98888.59
2022-09-13T23:54:50.385Z,98887.69
2022-09-13T23:57:19.789Z,98890.16
2022-09-13T23:59:55.545Z,98887.50
